Flight Track Log - Related Links

Times and Time Zones

All times are in EDT time to prevent confusion due to time zone crossing. See the N516QS flight status page for this flight to view local times or setup timezone preferences in your user account.

Time Position Orientation Groundspeed Altitude Reporting Facility
EDT Latitude Longitude Course Direction KTS MPH feet Rate Location/Type
Thu 01:33:01 PM 40.8167 -74.1667 270° West 208 239 2,300  Level New York TRACON
Thu 01:34:01 PM 40.7833 -74.2500 242° Southwest 256 295 5,300 4,053 Climbing New York TRACON
Thu 01:34:55 PM 40.7667 -74.3333 255° West 246 283 10,000 4,389 Climbing New York TRACON
Thu 01:36:30 PM 40.7667 -74.4564 270° West 258 297 16,200 2,980 Climbing New York Center
Thu 01:37:28 PM 40.7467 -74.5592 256° West 258 297 17,600 1,866 Climbing New York Center
Thu 01:38:00 PM 40.6000 -74.8465 270° West  Level FlightAware Approximate
Thu 01:38:29 PM 40.7036 -74.6664 242° Southwest 297 342 19,900  Level New York Center
Thu 01:39:30 PM 40.6583 -74.7758 241° Southwest 330 380 23,000 2,975 Climbing New York Center
Thu 01:40:30 PM 40.6103 -74.9017 243° Southwest 360 414 25,900 2,678 Climbing New York Center
Thu 01:41:31 PM 40.5600 -75.0269 242° Southwest 382 440 28,400 2,430 Climbing New York Center
Thu 01:42:31 PM 40.4889 -75.1481 232° Southwest 399 459 30,800 2,136 Climbing New York Center
Thu 01:43:29 PM 40.4136 -75.2633 229° Southwest 416 479 32,600 2,085 Climbing New York Center
Thu 01:44:29 PM 40.3381 -75.3836 231° Southwest 429 494 34,900 2,132 Climbing New York Center
Thu 01:45:30 PM 40.2669 -75.4958 230° Southwest 434 499 36,900 2,033 Climbing New York Center
Thu 01:46:30 PM 40.1931 -75.6186 232° Southwest 439 505 39,000 1,576 Climbing New York Center
Thu 01:47:28 PM 40.1175 -75.7356 230° Southwest 434 499 40,000 500 Climbing New York Center
Thu 01:48:30 PM 40.0433 -75.8603 232° Southwest 439 505 40,000  Level New York Center
Thu 01:50:20 PM 39.8939 -76.0892 230° Southwest 435 501 40,000  Level Washington Center
Thu 01:51:22 PM 39.8183 -76.2100 231° Southwest 435 501 40,000  Level Washington Center
Thu 01:52:22 PM 39.7425 -76.3336 231° Southwest 440 506 40,000  Level Washington Center
Thu 01:53:22 PM 39.6625 -76.4567 230° Southwest 448 516 40,000  Level Washington Center
Thu 01:54:20 PM 39.5719 -76.5903 229° Southwest 448 516 40,000  Level Washington Center
Thu 01:55:20 PM 39.4939 -76.7131 231° Southwest 453 521 40,000  Level Washington Center
Thu 01:56:21 PM 39.4156 -76.8353 230° Southwest 453 521 40,000  Level Washington Center
Thu 01:57:21 PM 39.3372 -76.9575 230° Southwest 453 521 40,000  Level Washington Center
Thu 01:58:22 PM 39.2564 -77.0819 230° Southwest 453 521 40,000  Level Washington Center
Thu 01:59:20 PM 39.1800 -77.2008 230° Southwest 453 521 40,000  Level Washington Center
Thu 02:00:20 PM 39.1011 -77.3222 230° Southwest 453 521 40,000  Level Washington Center
Thu 02:01:22 PM 39.0222 -77.4431 230° Southwest 453 521 40,000  Level Washington Center
Thu 02:02:22 PM 38.9453 -77.5614 230° Southwest 448 516 40,000  Level Washington Center
Thu 02:03:20 PM 38.8639 -77.6792 228° Southwest 448 516 40,000  Level Washington Center
Thu 02:04:20 PM 38.7911 -77.7969 232° Southwest 441 507 40,000  Level Washington Center
Thu 02:05:21 PM 38.7139 -77.9064 228° Southwest 452 520 40,000  Level Washington Center
Thu 02:06:21 PM 38.6386 -78.0236 231° Southwest 452 520 40,000  Level Washington Center
Thu 02:07:21 PM 38.5611 -78.1406 230° Southwest 447 514 40,000  Level Washington Center
Thu 02:08:22 PM 38.4814 -78.2572 229° Southwest 442 509 40,000  Level Washington Center
Thu 02:09:20 PM 38.4058 -78.3736 230° Southwest 442 509 40,000  Level Washington Center
Thu 02:10:20 PM 38.3281 -78.4872 229° Southwest 442 509 40,000  Level Washington Center
Thu 02:11:21 PM 38.2522 -78.6033 230° Southwest 437 503 40,000  Level Washington Center
Thu 02:12:21 PM 38.1678 -78.7294 230° Southwest 437 503 40,000  Level Washington Center
Thu 02:13:20 PM 38.0897 -78.8422 229° Southwest 437 503 40,000  Level Washington Center
Thu 02:14:20 PM 38.0092 -78.9572 228° Southwest 437 503 40,000  Level Washington Center
Thu 02:15:22 PM 37.9353 -79.0619 228° Southwest 442 509 40,000  Level Washington Center
Thu 02:16:20 PM 37.8672 -79.1850 235° Southwest 442 509 40,000  Level Washington Center
Thu 02:17:21 PM 37.8028 -79.3133 238° Southwest 442 509 40,000  Level Washington Center
Thu 02:18:22 PM 37.7336 -79.4544 238° Southwest 437 503 40,000  Level Washington Center
Thu 02:19:22 PM 37.6736 -79.5669 236° Southwest 430 495 40,000  Level Washington Center
Thu 02:20:20 PM 37.6042 -79.7075 238° Southwest 435 501 40,000  Level Washington Center
Thu 02:21:20 PM 37.5439 -79.8219 236° Southwest 435 501 40,000  Level Washington Center
Thu 02:22:21 PM 37.4786 -79.9572 239° Southwest 444 511 40,000  Level Washington Center
Thu 02:24:56 PM 37.3022 -80.2950 237° Southwest 428 493 40,000  Level Atlanta Center
Thu 02:25:56 PM 37.2392 -80.4178 237° Southwest 433 498 40,000  Level Atlanta Center
Thu 02:26:56 PM 37.1781 -80.5328 236° Southwest 433 498 40,000 -50 Level Atlanta Center
Thu 02:27:56 PM 37.1128 -80.6631 238° Southwest 438 504 39,900 -500 Descending Atlanta Center
Thu 02:28:56 PM 37.0283 -80.7733 226° Southwest 444 511 39,000 -1,300 Descending Atlanta Center
Thu 02:29:56 PM 36.9203 -80.8711 216° Southwest 443 510 37,300 -1,900 Descending Atlanta Center
Thu 02:30:56 PM 36.8267 -80.9581 217° Southwest 443 510 35,200 -2,050 Descending Atlanta Center
Thu 02:31:56 PM 36.7308 -81.0472 217° Southwest 438 504 33,200 -2,100 Descending Atlanta Center
Thu 02:32:56 PM 36.6311 -81.1442 218° Southwest 438 504 31,000 -2,200 Descending Atlanta Center
Thu 02:33:56 PM 36.5331 -81.2356 217° Southwest 449 517 28,800 -2,200 Descending Atlanta Center
Thu 02:34:56 PM 36.4350 -81.3292 218° Southwest 449 517 26,600 -2,150 Descending Atlanta Center
Thu 02:35:56 PM 36.3389 -81.4175 217° Southwest 442 509 24,500 -2,150 Descending Atlanta Center
Thu 02:36:56 PM 36.2489 -81.5028 217° Southwest 429 494 22,300 -2,050 Descending Atlanta Center
Thu 02:37:56 PM 36.1589 -81.5828 216° Southwest 416 479 20,400 -1,950 Descending Atlanta Center
Thu 02:38:56 PM 36.0728 -81.6650 218° Southwest 403 464 18,400 -1,900 Descending Atlanta Center
Thu 02:39:56 PM 35.9889 -81.7419 217° Southwest 396 456 16,600 -1,800 Descending Atlanta Center
Thu 02:40:56 PM 35.9047 -81.8161 216° Southwest 385 443 14,800 -1,750 Descending Atlanta Center
Thu 02:41:56 PM 35.8247 -81.8925 218° Southwest 373 429 13,100 -1,650 Descending Atlanta Center
Thu 02:42:56 PM 35.7528 -81.9558 216° Southwest 352 405 11,500 -1,100 Descending Atlanta Center
Thu 02:43:56 PM 35.6911 -82.0136 217° Southwest 302 348 10,900 -250 Descending Atlanta Center
Thu 02:44:56 PM 35.6378 -82.0636 217° Southwest 278 320 11,000  Climbing Atlanta Center
Thu 02:45:56 PM 35.5803 -82.1186 218° Southwest 270 311 10,900 -850 Descending Atlanta Center
Thu 02:46:56 PM 35.5711 -82.2056 263° West 242 278 9,300 -1,700 Descending Atlanta Center
Thu 02:47:56 PM 35.5639 -82.2875 264° West 248 285 7,500 -1,650 Descending Atlanta Center
Thu 02:48:56 PM 35.4994 -82.3017 190° South 216 249 6,000 -1,000 Descending Atlanta Center
Thu 02:49:56 PM 35.4475 -82.3281 202° Southwest 207 238 5,500 -300 Descending Atlanta Center
Thu 02:50:56 PM 35.4150 -82.3822 234° Southwest 196 226 5,400 -500 Descending Atlanta Center
Thu 02:51:56 PM 35.3925 -82.4261 238° Southwest 196 226 4,500 9,300 Descending Atlanta Center
Thu 02:52:56 PM 35.3558 -82.4828 232° Southwest 196 226 24,000 19,500 Climbing Atlanta Center
Thu 02:54:00 PM 35.4333 -82.5333 270° West  Level FlightAware Approximate
Thu 03:01:00 PM 35.4362 -82.5418 270° West  Level Estimated

Login

Don't have an account? Register now (free) for customized features, flight alerts, and more!